Saint-Lin, Canada
Current Conditions -  °F | °C
As of 1:00 PM on Thursday 23 Oct 2014 (Local Time) from CYMX Reporting Station
Overcast Overcast  
Wind Chill: 44°   Ceiling: 4200
Heat Index: 48°   Visibility: 10mi
Dew Point: 43°   Wind: 9mph
Humidity: 82%   Direction: 30°NNE
Pressure: 30.04"   Gusts: 17mph
Location:  45.85°N, 73.77°W
Report Text: CYMX 231700Z 03008G15KT 330V070 10SM FEW012 OVC042 09/06 A3004 RMK SF1SC7 SLP175
Loading
Personal Weather Stations






























Interactive Weather Map New forecast layout! Learn more

10-Day Weather Forecast

Advertisements
Track Severe Weather on mobile